createdAt,value
2018-12-23T00:04:01.907Z,56.50
2018-12-23T00:09:07.205Z,56.50
2018-12-23T00:14:10.692Z,56.60
2018-12-23T00:19:13.897Z,56.50
2018-12-23T00:24:17.119Z,56.50
2018-12-23T00:29:20.392Z,57.00
2018-12-23T00:34:24.044Z,56.40
2018-12-23T00:39:27.272Z,56.50
2018-12-23T00:44:30.511Z,56.50
2018-12-23T00:49:33.900Z,56.50
2018-12-23T00:54:37.108Z,56.60
2018-12-23T00:59:40.324Z,56.60
2018-12-23T01:04:43.586Z,56.60
2018-12-23T01:09:46.801Z,56.50
2018-12-23T01:14:50.033Z,56.60
2018-12-23T01:19:53.283Z,56.60
2018-12-23T01:24:56.800Z,56.40
2018-12-23T01:30:00.087Z,56.50
2018-12-23T01:35:03.685Z,56.60
2018-12-23T01:40:07.125Z,56.50
2018-12-23T01:45:10.376Z,56.50
2018-12-23T01:50:13.603Z,56.50
2018-12-23T01:55:16.815Z,56.50
2018-12-23T02:00:20.089Z,56.50
2018-12-23T02:05:23.401Z,56.40
2018-12-23T02:10:26.643Z,56.40
2018-12-23T02:15:29.950Z,56.50
2018-12-23T02:20:33.313Z,56.40
2018-12-23T02:25:36.499Z,56.50
2018-12-23T02:30:39.705Z,56.30
2018-12-23T02:35:42.943Z,56.40
2018-12-23T02:40:46.359Z,56.50
2018-12-23T02:45:49.672Z,56.50
2018-12-23T02:50:52.903Z,57.30
2018-12-23T02:55:56.133Z,56.50
2018-12-23T03:00:59.477Z,56.50
2018-12-23T03:06:06.094Z,57.10
2018-12-23T03:11:07.934Z,56.50
2018-12-23T03:16:11.135Z,56.30
2018-12-23T03:21:14.321Z,56.20
2018-12-23T03:26:17.553Z,56.30
2018-12-23T03:31:20.944Z,56.40
2018-12-23T03:36:24.145Z,56.40
2018-12-23T03:41:27.398Z,56.40
2018-12-23T03:46:30.670Z,56.50
2018-12-23T03:51:33.899Z,56.50
2018-12-23T03:56:37.149Z,56.50
2018-12-23T04:01:40.332Z,56.50
2018-12-23T04:06:43.545Z,56.40
2018-12-23T04:11:46.740Z,56.50
2018-12-23T04:16:49.956Z,56.50
2018-12-23T04:21:53.208Z,56.50
2018-12-23T04:26:56.431Z,56.50
2018-12-23T04:31:59.706Z,56.50
2018-12-23T04:37:02.966Z,56.60
2018-12-23T04:42:06.158Z,56.50
2018-12-23T04:47:09.405Z,56.50
2018-12-23T04:52:13.024Z,56.50
2018-12-23T04:57:16.238Z,56.50
2018-12-23T05:02:19.479Z,56.60
2018-12-23T05:07:22.662Z,56.50
2018-12-23T05:12:26.149Z,56.50
2018-12-23T05:17:29.543Z,56.60
2018-12-23T05:22:32.756Z,56.50
2018-12-23T05:27:35.931Z,56.50
2018-12-23T05:32:39.169Z,56.60
2018-12-23T05:37:42.427Z,56.60
2018-12-23T05:42:45.662Z,56.50
2018-12-23T05:47:49.417Z,57.20
2018-12-23T05:52:52.647Z,57.10
2018-12-23T05:57:55.862Z,56.50
2018-12-23T06:02:59.056Z,56.50
2018-12-23T06:08:02.262Z,56.50
2018-12-23T06:13:05.430Z,56.50
2018-12-23T06:18:08.669Z,56.50
2018-12-23T06:23:11.885Z,56.60
2018-12-23T06:28:15.090Z,56.50
2018-12-23T06:33:18.267Z,56.40
2018-12-23T06:38:21.513Z,56.50
2018-12-23T06:43:24.677Z,56.30
2018-12-23T06:48:27.939Z,56.40
2018-12-23T06:53:31.193Z,56.00
2018-12-23T06:58:34.412Z,56.30
2018-12-23T07:03:37.643Z,56.40
2018-12-23T07:08:40.901Z,56.30
2018-12-23T07:13:44.290Z,56.20
2018-12-23T07:18:47.478Z,56.30
2018-12-23T07:23:50.697Z,56.20
2018-12-23T07:28:53.913Z,56.30
2018-12-23T07:33:57.215Z,56.30
2018-12-23T07:39:01.293Z,56.30
2018-12-23T07:44:04.499Z,56.40
2018-12-23T07:49:07.720Z,56.30
2018-12-23T07:54:10.951Z,56.40
2018-12-23T07:59:14.165Z,56.50
2018-12-23T08:04:17.547Z,56.30
2018-12-23T08:09:21.457Z,56.60
2018-12-23T08:14:24.693Z,56.80
2018-12-23T08:19:27.977Z,56.80
2018-12-23T08:24:31.267Z,56.70
2018-12-23T08:29:34.507Z,56.60
2018-12-23T08:34:37.854Z,56.80
2018-12-23T08:39:41.151Z,56.80
2018-12-23T08:44:44.391Z,56.90
2018-12-23T08:49:47.717Z,56.80
2018-12-23T08:54:50.987Z,56.80
2018-12-23T08:59:54.555Z,56.80
2018-12-23T09:04:57.775Z,56.80
2018-12-23T09:10:01.022Z,56.60
2018-12-23T09:15:04.215Z,56.80
2018-12-23T09:20:07.456Z,56.70
2018-12-23T09:25:10.681Z,56.80
2018-12-23T09:30:13.875Z,56.80
2018-12-23T09:35:17.360Z,56.80
2018-12-23T09:40:20.730Z,56.80
2018-12-23T09:45:23.988Z,56.80
2018-12-23T09:50:27.231Z,56.80
2018-12-23T09:55:30.969Z,56.80
2018-12-23T10:01:01.703Z,56.80
2018-12-23T10:06:05.922Z,56.80
2018-12-23T10:11:10.149Z,56.70
2018-12-23T10:16:14.310Z,56.80
2018-12-23T10:21:18.423Z,56.80
2018-12-23T10:26:23.190Z,56.80
2018-12-23T10:31:27.418Z,57.50
2018-12-23T10:36:31.537Z,56.80
2018-12-23T10:41:35.792Z,56.60
2018-12-23T10:46:39.952Z,56.70
2018-12-23T10:51:44.256Z,56.70
2018-12-23T10:56:51.528Z,56.70
2018-12-23T11:01:55.738Z,57.50
2018-12-23T11:06:59.880Z,56.90
2018-12-23T11:12:04.028Z,56.80
2018-12-23T11:17:08.524Z,56.70
2018-12-23T11:22:12.731Z,56.70
2018-12-23T11:27:16.993Z,56.60
2018-12-23T11:32:21.168Z,56.70
2018-12-23T11:37:25.645Z,56.80
2018-12-23T11:42:29.969Z,56.80
2018-12-23T11:47:34.177Z,57.20
2018-12-23T11:52:38.336Z,58.60
2018-12-23T11:57:42.441Z,58.40
2018-12-23T12:02:46.716Z,58.60
2018-12-23T12:07:51.526Z,58.50
2018-12-23T12:12:55.759Z,58.70
2018-12-23T12:17:59.898Z,58.80
2018-12-23T12:23:04.156Z,58.90
2018-12-23T12:28:08.368Z,58.80
2018-12-23T12:33:12.597Z,58.90
2018-12-23T12:38:16.920Z,59.20
2018-12-23T12:43:21.107Z,59.00
2018-12-23T12:48:25.317Z,58.90
2018-12-23T12:53:29.595Z,59.00
2018-12-23T12:58:34.088Z,58.90
2018-12-23T13:03:38.440Z,58.90
2018-12-23T13:08:42.569Z,59.10
2018-12-23T13:13:46.952Z,59.10
2018-12-23T13:18:51.461Z,59.30
2018-12-23T13:23:55.815Z,59.20
2018-12-23T13:29:00.017Z,59.20
2018-12-23T13:34:04.149Z,59.20
2018-12-23T13:39:10.416Z,59.40
2018-12-23T13:44:50.822Z,59.20
2018-12-23T13:50:37.828Z,59.30
2018-12-23T13:56:19.723Z,59.30
2018-12-23T14:01:57.457Z,59.40
2018-12-23T14:07:32.178Z,59.40
2018-12-23T14:12:36.373Z,59.40
2018-12-23T14:17:40.565Z,59.30
2018-12-23T14:22:44.701Z,59.10
2018-12-23T14:27:48.870Z,59.10
2018-12-23T14:32:53.086Z,59.10
2018-12-23T14:37:57.313Z,59.10
2018-12-23T14:43:01.486Z,59.00
2018-12-23T14:48:10.274Z,59.10
2018-12-23T14:53:14.500Z,59.00
2018-12-23T14:58:18.673Z,59.40
2018-12-23T15:03:23.117Z,58.70
2018-12-23T15:08:27.246Z,58.60
2018-12-23T15:13:31.829Z,58.50
2018-12-23T15:18:39.237Z,58.40
2018-12-23T15:23:43.307Z,58.40
2018-12-23T15:28:47.462Z,58.30
2018-12-23T15:33:51.672Z,58.40
2018-12-23T15:38:55.905Z,58.40
2018-12-23T15:44:00.114Z,58.30
2018-12-23T15:49:04.354Z,58.30
2018-12-23T15:54:08.677Z,58.20
2018-12-23T15:59:13.006Z,58.20
2018-12-23T16:04:17.341Z,58.20
2018-12-23T16:09:21.530Z,58.10
2018-12-23T16:14:25.812Z,58.00
2018-12-23T16:19:29.923Z,57.90
2018-12-23T16:24:34.121Z,58.00
2018-12-23T16:29:38.362Z,57.90
2018-12-23T16:34:42.563Z,57.80
2018-12-23T16:39:47.779Z,57.80
2018-12-23T16:44:51.986Z,57.80
2018-12-23T16:49:56.279Z,57.70
2018-12-23T16:55:00.572Z,57.60
2018-12-23T17:00:05.930Z,57.60
2018-12-23T17:05:10.145Z,57.70
2018-12-23T17:10:14.316Z,57.60
2018-12-23T17:15:18.495Z,57.60
2018-12-23T17:20:22.736Z,57.50
2018-12-23T17:25:26.949Z,57.40
2018-12-23T17:30:31.059Z,57.60
2018-12-23T17:35:35.486Z,57.50
2018-12-23T17:40:39.639Z,57.50
2018-12-23T17:45:43.903Z,57.50
2018-12-23T17:50:48.217Z,57.40
2018-12-23T17:55:52.462Z,57.30
2018-12-23T18:00:56.942Z,57.30
2018-12-23T18:06:01.100Z,57.30
2018-12-23T18:11:05.722Z,57.30
2018-12-23T18:16:10.071Z,57.20
2018-12-23T18:21:14.252Z,57.20
2018-12-23T18:26:18.486Z,57.20
2018-12-23T18:31:22.572Z,57.30
2018-12-23T18:36:26.702Z,57.30
2018-12-23T18:41:30.828Z,57.20
2018-12-23T18:46:34.926Z,57.20
2018-12-23T18:51:39.152Z,57.30
2018-12-23T18:56:45.942Z,57.20
2018-12-23T19:02:01.612Z,57.20
2018-12-23T19:07:06.490Z,57.20
2018-12-23T19:12:28.522Z,57.10
2018-12-23T19:18:06.292Z,57.10
2018-12-23T19:23:28.899Z,57.10
2018-12-23T19:29:25.395Z,57.10
2018-12-23T19:35:00.311Z,57.00
2018-12-23T19:40:57.561Z,57.00
2018-12-23T19:46:43.500Z,57.00
2018-12-23T19:52:40.629Z,57.00
2018-12-23T19:58:10.980Z,57.00
2018-12-23T20:04:04.430Z,56.90
2018-12-23T20:09:39.337Z,57.00
2018-12-23T20:15:21.061Z,56.90
2018-12-23T20:21:01.588Z,56.80
2018-12-23T20:26:46.702Z,56.90
2018-12-23T20:32:20.843Z,56.90
2018-12-23T20:37:37.253Z,56.80
2018-12-23T20:43:06.416Z,56.80
2018-12-23T20:49:02.668Z,56.80
2018-12-23T20:54:35.866Z,56.80
2018-12-23T21:00:16.326Z,56.80
2018-12-23T21:05:55.489Z,56.70
2018-12-23T21:11:32.321Z,56.70
2018-12-23T21:16:45.485Z,56.80
2018-12-23T21:22:27.055Z,56.80
2018-12-23T21:28:10.757Z,56.80
2018-12-23T21:34:05.738Z,56.70
2018-12-23T21:39:41.238Z,56.70
2018-12-23T21:45:38.390Z,56.80
2018-12-23T21:51:24.294Z,56.80
2018-12-23T21:57:17.212Z,56.80
2018-12-23T22:03:01.614Z,56.90
2018-12-23T22:08:30.700Z,56.80
2018-12-23T22:13:34.881Z,56.80
2018-12-23T22:18:39.032Z,56.80
2018-12-23T22:23:43.104Z,56.80
2018-12-23T22:28:47.311Z,56.80
2018-12-23T22:33:51.489Z,56.70
2018-12-23T22:38:58.020Z,56.70
2018-12-23T22:44:02.480Z,56.70
2018-12-23T22:49:06.641Z,56.70
2018-12-23T22:54:10.822Z,56.70
2018-12-23T22:59:14.963Z,56.70
2018-12-23T23:04:19.154Z,56.70
2018-12-23T23:09:23.320Z,56.70
2018-12-23T23:14:27.484Z,57.30
2018-12-23T23:19:31.576Z,56.70
2018-12-23T23:24:35.765Z,56.70
2018-12-23T23:29:39.868Z,56.70
2018-12-23T23:34:44.043Z,56.70
2018-12-23T23:39:48.242Z,56.60
2018-12-23T23:44:52.395Z,56.70
2018-12-23T23:49:56.600Z,56.60
2018-12-23T23:55:00.734Z,56.60
